Latest Weather Observations for Barimunya

IDW60801

Issued at 9:23 pm WST Saturday 23 January 2021 (issued every 10 minutes, with the page automatically refreshed every 10 minutes)

About weather observations | Map of weather stations | Latest weather observations for WA | Other Formats
Station Details ID: 505053 Name: BARIMUNYA Lat: -22.67 Lon: 119.16 Height: 629.17 m
Data from the previous 72 hours. | See also: Recent months for locations in Western Australia
Date/Time
WST
Temp
°C
App
Temp
°C
Dew
Point
°C
Rel
Hum
%
Delta-T
°C
Wind Press
QNH
hPa
Press
MSL
hPa
Rain since
9am
mm
Dir  Spd
km/h
Gust
km/h
Spd
kts
Gust
kts
23/09:00pm 32.6 27.8 4.4 17 15.2 WSW 19 24 10 13 1006.9 1001.2 0.0
23/08:30pm 32.9 28.3 3.8 16 15.5 WSW 17 20 9 11 1006.7 1001.0 0.0
23/08:00pm 33.3 28.6 3.2 15 16.0 WSW 17 24 9 13 1006.4 1000.7 0.0
23/07:30pm 34.3 28.6 0.8 12 17.2 WSW 20 28 11 15 1006.1 1000.4 0.0
23/07:00pm 35.1 28.8 1.5 12 17.5 WSW 24 33 13 18 1005.8 1000.0 0.0
23/06:30pm 36.1 29.7 1.0 11 18.2 WSW 24 32 13 17 1005.3 999.6 0.0
23/06:00pm 36.9 29.8 1.6 11 18.7 WSW 28 39 15 21 1004.9 999.2 0.0
23/05:30pm 38.0 31.9 2.5 11 19.1 WSW 24 35 13 19 1004.4 998.7 0.0
23/05:00pm 38.1 32.0 4.9 13 18.6 WSW 26 41 14 22 1003.9 998.1 0.0
23/04:30pm 38.0 31.5 4.8 13 18.5 WSW 28 41 15 22 1003.8 998.0 0.0
23/04:00pm 38.0 31.7 5.9 14 18.2 W 28 43 15 23 1003.6 997.9 0.0
23/03:48pm 39.3 33.3 6.9 14 18.7 W 28 48 15 26 1003.5 997.8 0.0
23/03:30pm 38.3 32.1 6.1 14 18.3 WSW 28 37 15 20 1003.8 998.0 0.0
23/03:00pm 37.9 32.4 7.7 16 17.6 WSW 26 52 14 28 1004.0 998.2 0.0
23/02:41pm 38.5 32.6 9.1 17 17.5 W 30 54 16 29 1004.1 998.3 0.0
23/02:30pm 38.7 34.0 9.3 17 17.5 WSW 24 41 13 22 1004.2 998.4 0.0
23/02:00pm 39.1 33.9 8.7 16 18.1 W 26 43 14 23 1004.3 998.5 0.0
23/01:30pm 37.2 31.0 6.3 15 17.5 WSW 28 46 15 25 1004.4 998.7 0.0
23/01:29pm 37.3 31.5 6.3 15 17.6 WSW 26 46 14 25 1004.4 998.7 0.0
23/01:00pm 36.8 33.1 10.2 20 16.0 W 20 33 11 18 1004.6 998.9 0.0
23/12:30pm 35.7 32.7 12.0 24 14.5 SW 19 35 10 19 1005.1 999.4 0.0
23/12:00pm 35.5 30.9 11.2 23 14.7 SW 26 39 14 21 1005.5 999.7 0.0
23/11:46am 35.5 32.5 12.5 25 14.2 W 20 41 11 22 1005.7 999.9 0.0
23/11:30am 33.1 31.9 15.1 33 11.4 SW 15 20 8 11 1006.0 1000.3 0.0
23/11:00am 31.2 30.0 16.0 40 9.7 WSW 17 26 9 14 1006.5 1000.8 0.0
23/10:30am 30.3 30.1 16.7 44 8.8 WSW 13 19 7 10 1006.7 1001.0 0.0
23/10:00am 28.9 28.7 16.8 48 7.8 WSW 13 20 7 11 1007.0 1001.3 0.0
23/09:30am 28.2 28.3 17.4 52 7.0 SSW 13 20 7 11 1007.2 1001.4 0.0
23/09:00am 26.6 28.0 17.7 58 5.8 WSW 7 19 4 10 1007.2 1001.4 0.0
23/08:30am 25.8 26.8 17.7 61 5.2 ESE 9 15 5 8 1007.3 1001.5 0.0
23/08:00am 24.5 22.9 17.5 65 4.5 SSE 22 30 12 16 1006.9 1001.2 0.0
23/07:30am 23.9 22.7 17.6 68 4.0 SE 20 26 11 14 1007.0 1001.3 0.0
23/07:00am 23.1 22.1 17.6 71 3.5 SSE 19 24 10 13 1006.9 1001.2 0.0
23/06:30am 23.2 22.5 17.4 70 3.7 SSE 17 20 9 11 1006.6 1000.9 0.0
23/06:00am 22.8 22.5 17.3 71 3.5 SSE 15 20 8 11 1006.4 1000.7 0.0
23/05:30am 22.6 22.6 17.1 71 3.5 SSE 13 17 7 9 1006.0 1000.3 0.0
23/05:00am 22.7 21.9 17.2 71 3.5 SSE 17 22 9 12 1005.7 999.9 0.0
23/04:30am 22.5 23.3 17.2 72 3.3 SE 9 13 5 7 1005.5 999.7 0.0
23/04:00am 22.6 22.7 17.5 73 3.2 SSE 13 17 7 9 1005.3 999.6 0.0
23/03:30am 22.6 23.7 17.9 75 3.0 SSW 9 11 5 6 1005.7 999.9 0.0
23/03:00am 22.4 23.5 18.0 76 2.8 WSW 9 11 5 6 1005.7 999.9 0.0
23/02:30am 22.5 23.3 18.1 76 2.8 W 11 15 6 8 1005.7 999.9 0.0
23/02:00am 22.4 23.9 18.0 76 2.8 S 7 9 4 5 1005.3 999.6 0.0
23/01:30am 22.5 23.5 17.8 75 3.0 S 9 11 5 6 1005.1 999.4 0.0
23/01:00am 22.6 24.1 17.7 74 3.1 SSE 6 7 3 4 1005.7 999.9 0.0
23/12:30am 22.8 23.9 17.9 74 3.1 SSE 9 13 5 7 1006.1 1000.4 0.0
23/12:00am 23.0 22.9 17.9 73 3.3 SSE 15 20 8 11 1006.6 1000.9 0.0
 
Date/Time
WST
Temp
°C
App
Temp
°C
Dew
Point
°C
Rel
Hum
%
Delta-T
°C
Wind Press
QNH
hPa
Press
MSL
hPa
Rain since
9am
mm
Dir  Spd
km/h
Gust
km/h
Spd
kts
Gust
kts
22/11:30pm 23.0 22.2 18.1 74 3.1 SE 19 22 10 12 1006.7 1001.0 0.0
22/11:00pm 23.3 22.3 18.0 72 3.4 SE 20 28 11 15 1007.3 1001.5 0.0
22/10:30pm 23.6 23.0 18.5 73 3.3 SE 19 22 10 12 1007.8 1002.1 0.0
22/10:00pm 23.6 22.9 18.3 72 3.4 ESE 19 28 10 15 1008.0 1002.3 0.0
22/09:30pm 23.9 23.1 17.9 69 3.9 E 19 24 10 13 1008.0 1002.3 0.0
22/09:00pm 24.8 24.3 17.8 65 4.5 E 17 30 9 16 1007.7 1002.0 0.0
22/08:30pm 25.9 23.5 16.5 56 5.9 ESE 24 32 13 17 1007.3 1001.5 0.0
22/08:00pm 26.3 22.6 16.0 53 6.5 SE 30 37 16 20 1006.8 1001.1 0.0
22/07:30pm 26.9 23.8 15.6 50 7.1 ESE 26 37 14 20 1006.8 1001.1 0.0
22/07:00pm 27.4 23.0 15.1 47 7.7 ESE 32 39 17 21 1006.5 1000.8 0.0
22/06:30pm 28.1 23.8 15.4 46 8.0 ESE 32 50 17 27 1006.2 1000.5 0.0
22/06:28pm 28.3 24.3 15.2 44 8.2 ESE 30 48 16 26 1006.2 1000.5 0.0
22/06:00pm 29.3 25.1 16.1 44 8.4 ESE 33 41 18 22 1005.6 999.8 0.0
22/05:30pm 30.3 26.1 15.6 41 9.3 ESE 32 43 17 23 1005.2 999.5 0.0
22/05:00pm 31.9 28.5 15.8 38 10.3 ESE 28 41 15 22 1005.1 999.4 0.0
22/04:30pm 31.8 27.8 15.3 37 10.5 ESE 30 44 16 24 1005.1 999.4 0.0
22/04:00pm 32.6 28.6 14.2 32 11.5 ESE 28 41 15 22 1005.2 999.5 0.0
22/03:30pm 33.0 29.0 13.1 30 12.3 ESE 26 39 14 21 1005.5 999.7 0.0
22/03:00pm 32.7 28.8 13.4 31 12.0 ESE 26 35 14 19 1006.0 1000.3 0.0
22/02:30pm 32.7 28.5 13.4 31 11.9 ESE 28 43 15 23 1006.5 1000.8 0.0
22/02:00pm 32.6 29.2 13.8 32 11.7 ESE 24 39 13 21 1007.0 1001.3 0.0
22/01:30pm 32.1 27.6 13.8 33 11.4 ESE 30 44 16 24 1007.4 1001.7 0.0
22/01:15pm 32.5 27.5 14.1 32 11.5 ESE 33 52 18 28 1007.6 1001.9 0.0
22/01:00pm 33.6 28.6 14.1 30 12.2 ESE 33 50 18 27 1007.6 1001.9 0.0
22/12:52pm 32.9 28.7 13.5 30 12.0 ESE 28 46 15 25 1007.7 1002.0 0.0
22/12:30pm 33.2 31.0 14.8 33 11.6 ESE 20 33 11 18 1007.8 1002.1 0.0
22/12:00pm 33.0 30.3 14.6 33 11.6 ENE 22 35 12 19 1008.1 1002.4 0.0
22/11:30am 32.7 30.1 13.8 31 11.8 E 20 39 11 21 1008.5 1002.8 0.0
22/11:00am 33.0 30.5 14.1 32 11.8 E 20 35 11 19 1009.2 1003.5 0.0
22/10:30am 32.0 29.6 13.7 33 11.3 E 19 35 10 19 1009.6 1003.9 0.0
22/10:00am 31.3 29.1 14.4 35 10.6 E 19 32 10 17 1009.7 1004.0 0.0
22/09:30am 30.8 29.0 14.4 36 10.2 SE 17 26 9 14 1009.9 1004.2 0.0
22/09:00am 30.2 29.1 14.3 38 9.9 ESE 13 26 7 14 1009.9 1004.2 0.0
22/08:30am 29.9 28.6 14.8 39 9.4 ENE 15 22 8 12 1010.3 1004.7 0.0
22/08:00am 30.1 28.5 15.0 40 9.5 E 17 26 9 14 1010.6 1004.9 0.0
22/07:30am 28.6 29.5 17.5 51 7.2 NE 9 17 5 9 1010.1 1004.4 0.0
22/07:00am 26.4 29.6 18.8 63 5.0 CALM 0 4 0 2 1010.0 1004.3 0.0
22/06:30am 25.8 27.4 19.2 67 4.3 NNE 9 13 5 7 1009.8 1004.1 0.0
22/06:00am 25.8 26.7 19.2 67 4.3 NNE 13 17 7 9 1010.1 1004.4 0.0
22/05:30am 25.7 26.1 19.8 70 3.9 NNE 17 24 9 13 1009.7 1004.0 0.0
22/05:00am 26.1 26.6 20.0 69 4.1 NNE 17 24 9 13 1009.2 1003.5 0.0
22/04:30am 26.5 27.3 19.9 67 4.4 NNE 15 22 8 12 1009.2 1003.5 0.0
22/04:00am 26.7 27.6 20.1 67 4.4 N 15 20 8 11 1008.7 1003.0 0.0
22/03:30am 26.3 25.9 20.2 69 4.1 N 22 33 12 18 1008.7 1003.0 0.0
22/03:00am 26.6 24.9 18.2 60 5.5 NNE 24 30 13 16 1009.0 1003.3 0.0
22/02:30am 27.0 26.3 18.6 60 5.5 NNE 20 26 11 14 1008.7 1003.0 0.0
22/02:00am 27.2 27.3 16.5 52 6.8 NNE 11 17 6 9 1008.7 1003.0 0.0
22/01:30am 26.9 28.2 16.2 52 6.8 W 4 7 2 4 1008.7 1003.0 0.0
22/01:00am 27.2 28.0 15.9 50 7.1 W 6 7 3 4 1008.9 1003.2 0.0
22/12:30am 27.2 29.4 16.5 52 6.8 CALM 0 0 0 0 1009.6 1003.9 0.0
22/12:00am 26.9 28.3 16.5 53 6.6 WNW 4 9 2 5 1009.7 1004.0 0.0
 
Date/Time
WST
Temp
°C
App
Temp
°C
Dew
Point
°C
Rel
Hum
%
Delta-T
°C
Wind Press
QNH
hPa
Press
MSL
hPa
Rain since
9am
mm
Dir  Spd
km/h
Gust
km/h
Spd
kts
Gust
kts
21/11:30pm 26.8 26.3 17.0 55 6.3 W 15 24 8 13 1009.7 1004.0 0.0
21/11:00pm 27.2 25.3 16.8 53 6.6 WNW 22 30 12 16 1009.9 1004.2 0.0
21/10:30pm 29.8 31.4 21.5 61 5.7 NW 15 22 8 12 1010.0 1004.3 0.0
21/10:00pm 30.1 30.4 18.8 50 7.5 NNW 15 22 8 12 1010.2 1004.5 0.0
21/09:30pm 29.9 29.0 18.3 49 7.6 N 20 30 11 16 1010.2 1004.5 0.0
21/09:00pm 30.1 27.7 18.2 49 7.8 NNE 28 37 15 20 1009.8 1004.1 0.0
21/08:30pm 31.0 28.4 18.7 48 8.2 N 30 37 16 20 1009.1 1003.4 0.0
21/08:00pm 31.6 29.6 18.2 44 8.9 N 26 35 14 19 1008.9 1003.2 0.0
21/07:42pm 31.7 29.1 17.9 43 9.1 N 28 46 15 25 1008.7 1003.0 0.0
21/07:30pm 32.0 29.1 17.9 43 9.3 N 30 44 16 24 1008.4 1002.7 0.0
21/07:00pm 32.9 29.1 17.1 39 10.3 N 33 44 18 24 1008.0 1002.3 0.0
21/06:30pm 34.8 30.4 15.2 31 12.5 NNE 32 50 17 27 1007.2 1001.4 0.0
21/06:24pm 35.3 31.5 14.6 29 13.1 NNE 28 50 15 27 1006.9 1001.2 0.0
21/06:00pm 37.2 32.6 9.7 19 16.4 NE 24 32 13 17 1006.4 1000.7 0.0
21/05:30pm 38.5 35.1 9.1 17 17.5 NE 17 28 9 15 1006.6 1000.9 0.0
21/05:00pm 37.9 35.1 8.6 17 17.3 ENE 13 19 7 10 1006.3 1000.6 0.0
21/04:30pm 38.7 35.9 8.4 16 17.8 NE 13 26 7 14 1006.6 1000.9 0.0
21/04:00pm 38.4 35.0 9.0 17 17.5 NE 17 33 9 18 1006.7 1001.0 0.0
21/03:30pm 38.9 35.1 7.6 15 18.2 NNE 17 28 9 15 1007.0 1001.3 0.0
21/03:00pm 38.4 35.1 8.1 16 17.8 NE 15 24 8 13 1007.4 1001.7 0.0
21/02:30pm 38.7 34.3 7.4 15 18.2 NE 20 30 11 16 1007.9 1002.2 0.0
21/02:00pm 38.7 35.1 8.4 16 17.9 NE 17 28 9 15 1008.4 1002.7 0.0
21/01:30pm 38.5 35.8 7.3 15 18.1 NNE 11 22 6 12 1008.6 1002.9 0.0
21/01:00pm 37.6 35.1 6.6 15 17.7 NE 9 20 5 11 1009.1 1003.4 0.0
21/12:30pm 38.1 34.6 7.0 15 17.9 N 15 20 8 11 1009.3 1003.6 0.0
21/12:00pm 38.1 36.0 9.6 18 17.0 NNE 11 19 6 10 1009.7 1004.0 0.0
21/11:30am 36.7 34.3 10.1 20 15.9 NNE 13 24 7 13 1010.1 1004.4 0.0
21/11:00am 36.6 34.4 12.1 23 15.1 NE 15 20 8 11 1010.7 1005.0 0.0
21/10:30am 35.2 33.2 11.6 24 14.3 NE 13 24 7 13 1011.1 1005.4 0.0
21/10:00am 34.9 33.2 12.5 25 13.8 E 13 24 7 13 1011.4 1005.7 0.0
21/09:30am 34.3 32.6 12.6 27 13.3 ESE 13 20 7 11 1011.4 1005.7 0.0
21/09:00am 33.5 32.4 13.0 29 12.7 ESE 11 19 6 10 1011.5 1005.8 0.0
21/08:30am 32.7 31.9 12.9 30 12.2 ESE 9 17 5 9 1011.5 1005.8 0.0
21/08:00am 31.7 30.6 13.0 32 11.5 SE 11 19 6 10 1011.5 1005.8 0.0
21/07:30am 30.7 29.3 13.5 35 10.6 SSE 13 17 7 9 1011.4 1005.7 0.0
21/07:00am 30.4 31.3 14.1 37 10.1 S 2 7 1 4 1011.4 1005.7 0.0
21/06:30am 27.7 29.2 14.7 45 8.1 CALM 0 0 0 0 1011.1 1005.4 0.0
21/06:00am 27.9 28.0 13.8 42 8.6 S 6 7 3 4 1010.8 1005.1 0.0
21/05:30am 27.7 27.5 13.6 42 8.6 S 7 9 4 5 1010.4 1004.8 0.0
21/05:00am 27.9 27.0 13.8 42 8.6 SSW 11 13 6 7 1010.0 1004.3 0.0
21/04:30am 28.2 26.9 13.7 41 8.9 SSW 13 20 7 11 1009.8 1004.1 0.0
21/04:00am 28.3 26.9 13.4 40 9.1 SSW 13 17 7 9 1009.7 1004.0 0.0
21/03:30am 29.1 27.3 13.3 37 9.6 SSW 15 20 8 11 1009.7 1004.0 0.0
21/03:00am 28.4 27.8 13.5 40 9.1 SW 9 13 5 7 1009.9 1004.2 0.0
21/02:30am 28.6 28.3 13.3 39 9.3 WSW 7 9 4 5 1010.1 1004.4 0.0
21/02:00am 28.8 28.0 11.8 35 10.1 WSW 7 9 4 5 1009.9 1004.2 0.0
21/01:30am 29.1 27.1 10.3 31 10.9 SW 11 17 6 9 1009.9 1004.2 0.0
21/01:00am 30.1 28.7 9.6 28 11.9 WSW 7 13 4 7 1009.8 1004.1 0.0
21/12:30am 31.1 28.1 7.5 23 13.2 W 13 19 7 10 1009.9 1004.2 0.0
21/12:00am 31.4 28.3 7.1 22 13.6 WNW 13 17 7 9 1010.3 1004.7 0.0
 
Date/Time
WST
Temp
°C
App
Temp
°C
Dew
Point
°C
Rel
Hum
%
Delta-T
°C
Wind Press
QNH
hPa
Press
MSL
hPa
Rain since
9am
mm
Dir  Spd
km/h
Gust
km/h
Spd
kts
Gust
kts
20/11:30pm 31.6 28.6 5.9 20 14.1 NNW 11 15 6 8 1010.7 1005.0 0.0
20/11:00pm 31.2 28.5 5.6 20 14.0 NE 9 13 5 7 1010.8 1005.1 0.0
20/10:30pm 31.7 28.3 6.0 20 14.1 NE 13 17 7 9 1011.0 1005.3 0.0
20/10:00pm 32.4 28.8 5.1 18 14.9 NE 13 17 7 9 1011.2 1005.5 0.0
20/09:30pm 33.7 30.0 4.4 16 15.8 NE 13 20 7 11 1011.2 1005.5 0.0

Other formats

Comma delimited format used in spreadsheet applications
http://www.bom.gov.au/fwo/IDW60801/IDW60801.99313.axf

JavaScript Object Notation format (JSON) in row-major order
http://www.bom.gov.au/fwo/IDW60801/IDW60801.99313.json

Data quality

Most of these data are generated automatically and are frequently updated. Quality checks on data are not normally performed. It is possible for incorrect values to appear. Refer to information at About Latest Weather Observations and please check the disclaimer before using these data.